createdAt,value
2022-09-14T03:41:21.080Z,96.67
2022-09-14T03:44:24.120Z,96.67
2022-09-14T03:47:27.224Z,98.84
2022-09-14T03:50:30.429Z,98.35
2022-09-14T03:53:33.505Z,97.59
2022-09-14T03:56:36.250Z,97.48
2022-09-14T03:59:43.044Z,96.46
2022-09-14T04:02:46.716Z,96.11
2022-09-14T04:05:56.414Z,96.96
2022-09-14T04:08:59.324Z,96.27
2022-09-14T04:12:02.112Z,95.47
2022-09-14T04:15:08.701Z,94.23
2022-09-14T04:18:12.093Z,93.24
2022-09-14T04:21:15.687Z,92.54
2022-09-14T04:24:18.769Z,92.86
2022-09-14T04:27:21.340Z,91.40
2022-09-14T04:30:24.231Z,91.08
2022-09-14T04:33:30.725Z,89.78
2022-09-14T04:36:33.603Z,88.36
2022-09-14T04:39:36.230Z,87.76
2022-09-14T04:42:38.971Z,88.12
2022-09-14T04:45:41.427Z,87.14
2022-09-14T04:48:44.543Z,87.39
2022-09-14T04:51:47.164Z,88.44
2022-09-14T04:54:49.925Z,89.12
2022-09-14T04:57:52.483Z,86.84
2022-09-14T05:01:09.635Z,85.35
2022-09-14T05:04:12.449Z,83.24
2022-09-14T05:07:15.034Z,83.46
2022-09-14T05:10:17.588Z,82.47
2022-09-14T05:13:20.390Z,80.87
2022-09-14T05:16:29.518Z,81.37
2022-09-14T05:19:32.539Z,81.33
2022-09-14T05:22:35.341Z,80.51
2022-09-14T05:25:38.210Z,80.04
2022-09-14T05:28:40.996Z,78.93
2022-09-14T05:31:44.064Z,78.12
2022-09-14T05:34:46.527Z,78.36
2022-09-14T05:37:49.382Z,78.17
2022-09-14T05:40:54.601Z,76.26
2022-09-14T05:43:59.563Z,74.65
2022-09-14T05:47:02.975Z,72.86
2022-09-14T05:50:08.445Z,72.60
2022-09-14T05:53:11.152Z,72.85
2022-09-14T05:56:14.507Z,72.92
2022-09-14T05:59:16.852Z,73.89
2022-09-14T06:02:19.584Z,73.24
2022-09-14T06:05:25.344Z,74.36
2022-09-14T06:08:28.212Z,72.60
2022-09-14T06:11:33.848Z,70.33
2022-09-14T06:14:36.723Z,69.94
2022-09-14T06:17:39.857Z,71.38
2022-09-14T06:20:53.026Z,68.92
2022-09-14T06:23:56.172Z,67.67
2022-09-14T06:26:58.711Z,66.73
2022-09-14T06:30:01.474Z,65.87
2022-09-14T06:33:05.088Z,64.75
2022-09-14T06:36:12.272Z,65.76
2022-09-14T06:39:14.886Z,66.63
2022-09-14T06:42:17.581Z,65.59
2022-09-14T06:45:23.197Z,65.25
2022-09-14T06:48:27.812Z,64.66
2022-09-14T06:51:37.226Z,64.85
2022-09-14T06:54:40.029Z,67.69
2022-09-14T06:57:43.222Z,69.52
2022-09-14T07:00:46.671Z,71.34
2022-09-14T07:03:51.498Z,77.84
2022-09-14T07:06:54.315Z,85.20
2022-09-14T07:09:56.871Z,90.61
2022-09-14T07:13:00.188Z,99.45
2022-09-14T07:16:03.874Z,100.00
2022-09-14T07:19:10.275Z,100.00
2022-09-14T07:22:12.994Z,100.00
2022-09-14T07:25:15.905Z,100.00
2022-09-14T07:28:18.619Z,100.00
2022-09-14T07:31:27.780Z,100.00
2022-09-14T07:34:30.346Z,100.00
2022-09-14T07:37:33.303Z,100.00
2022-09-14T07:40:36.035Z,100.00
2022-09-14T07:43:38.992Z,100.00
2022-09-14T07:46:43.255Z,100.00
2022-09-14T07:49:46.212Z,100.00
2022-09-14T07:52:52.077Z,100.00
2022-09-14T07:55:54.888Z,100.00
2022-09-14T07:59:11.880Z,100.00
2022-09-14T08:02:23.361Z,100.00
2022-09-14T08:05:26.457Z,100.00
2022-09-14T08:08:36.269Z,100.00
2022-09-14T08:11:39.040Z,100.00
2022-09-14T08:14:41.516Z,100.00
2022-09-14T08:17:43.909Z,97.87
2022-09-14T08:20:46.832Z,100.00
2022-09-14T08:23:49.758Z,100.00
2022-09-14T08:26:52.113Z,100.00
2022-09-14T08:29:54.669Z,100.00
2022-09-14T08:33:01.267Z,96.62
2022-09-14T08:36:06.451Z,99.41
2022-09-14T08:39:12.351Z,98.28
2022-09-14T08:42:18.724Z,91.66
2022-09-14T08:45:22.541Z,86.89
2022-09-14T08:48:35.155Z,79.97
2022-09-14T08:51:37.674Z,79.86
2022-09-14T08:54:40.994Z,75.86
2022-09-14T08:58:09.933Z,74.35
2022-09-14T09:01:20.722Z,73.47
2022-09-14T09:04:39.355Z,68.97
2022-09-14T09:08:01.825Z,65.42
2022-09-14T09:11:07.317Z,69.46
2022-09-14T09:14:24.119Z,64.47
2022-09-14T09:17:29.942Z,66.82
2022-09-14T09:20:46.395Z,64.92
2022-09-14T09:23:49.040Z,66.32
2022-09-14T09:26:51.545Z,65.85
2022-09-14T09:29:53.986Z,65.54
2022-09-14T09:32:57.617Z,63.71
2022-09-14T09:36:01.976Z,60.94
2022-09-14T09:39:05.943Z,58.92
2022-09-14T09:42:17.604Z,59.60
2022-09-14T09:45:20.697Z,65.52
2022-09-14T09:48:28.402Z,65.53
2022-09-14T09:51:33.430Z,62.93
2022-09-14T09:54:38.194Z,61.40
2022-09-14T09:57:41.074Z,61.60
2022-09-14T10:00:57.114Z,60.28
2022-09-14T10:04:04.697Z,58.29
2022-09-14T10:07:21.565Z,61.90
2022-09-14T10:10:39.147Z,60.36
2022-09-14T10:13:47.111Z,55.40
2022-09-14T10:16:50.299Z,55.83
2022-09-14T10:19:55.249Z,55.09
2022-09-14T10:23:21.608Z,53.74
2022-09-14T10:26:27.110Z,51.66
2022-09-14T10:29:54.677Z,53.33
2022-09-14T10:33:03.751Z,51.18
2022-09-14T10:36:29.714Z,52.00
2022-09-14T10:39:46.298Z,51.58
2022-09-14T10:43:17.178Z,51.80
2022-09-14T10:46:25.619Z,51.57
2022-09-14T10:49:48.129Z,53.46
2022-09-14T10:53:03.464Z,53.15
2022-09-14T10:56:14.122Z,54.56
2022-09-14T10:59:35.309Z,52.99
2022-09-14T11:02:56.034Z,53.06
2022-09-14T11:06:27.905Z,53.42
2022-09-14T11:09:43.332Z,52.23
2022-09-14T11:13:04.157Z,54.57
2022-09-14T11:16:23.321Z,52.25
2022-09-14T11:19:29.854Z,51.89
2022-09-14T11:22:47.423Z,54.10
2022-09-14T11:26:12.430Z,55.28
2022-09-14T11:29:27.485Z,55.41
2022-09-14T11:32:42.571Z,56.30
2022-09-14T11:35:58.345Z,58.11
2022-09-14T11:39:11.568Z,58.59
2022-09-14T11:42:22.882Z,58.07
2022-09-14T11:45:41.146Z,59.29
2022-09-14T11:48:51.798Z,59.20
2022-09-14T11:52:00.955Z,57.74
2022-09-14T11:55:10.846Z,57.98
2022-09-14T11:58:20.908Z,57.61
2022-09-14T12:01:40.636Z,58.52
2022-09-14T12:05:04.691Z,57.16
2022-09-14T12:08:38.700Z,57.24
2022-09-14T12:11:43.125Z,55.69
2022-09-14T12:14:46.902Z,52.99
2022-09-14T12:17:51.503Z,53.41
2022-09-14T12:21:02.874Z,52.84
2022-09-14T12:24:15.399Z,51.04
2022-09-14T12:27:24.092Z,51.32
2022-09-14T12:30:40.927Z,51.45
2022-09-14T12:33:46.075Z,52.20
2022-09-14T12:36:48.834Z,52.92
2022-09-14T12:40:10.107Z,52.74
2022-09-14T12:43:34.935Z,52.50
2022-09-14T12:46:38.713Z,52.92
2022-09-14T12:49:41.655Z,48.56
2022-09-14T12:52:44.104Z,46.32
2022-09-14T12:55:56.738Z,41.62
2022-09-14T12:59:24.135Z,39.90
2022-09-14T13:02:47.467Z,36.99
2022-09-14T13:05:51.057Z,35.59
2022-09-14T13:08:56.814Z,35.85
2022-09-14T13:12:06.195Z,32.60
2022-09-14T13:15:28.017Z,30.04
2022-09-14T13:18:36.922Z,25.81
2022-09-14T13:21:50.573Z,27.20
2022-09-14T13:24:53.540Z,30.92
2022-09-14T13:27:57.896Z,33.33
2022-09-14T13:31:01.747Z,33.42
2022-09-14T13:34:05.673Z,33.67
2022-09-14T13:37:13.296Z,31.49
2022-09-14T13:40:17.108Z,29.94
2022-09-14T13:43:21.889Z,31.39
2022-09-14T13:46:27.012Z,28.73
2022-09-14T13:49:30.184Z,27.66
2022-09-14T13:53:00.501Z,26.03
2022-09-14T13:56:00.545Z,26.12
2022-09-14T13:59:12.493Z,25.16
2022-09-14T14:02:15.076Z,28.15
2022-09-14T14:05:28.483Z,29.45
2022-09-14T14:08:36.361Z,27.59
2022-09-14T14:11:52.791Z,27.87
2022-09-14T14:15:05.352Z,32.00
2022-09-14T14:18:31.697Z,36.60
2022-09-14T14:21:34.234Z,40.34
2022-09-14T14:24:55.778Z,42.53
2022-09-14T14:28:02.419Z,45.67
2022-09-14T14:31:08.796Z,45.86
2022-09-14T14:34:27.421Z,47.50
2022-09-14T14:37:30.238Z,47.99
2022-09-14T14:40:34.880Z,49.31
2022-09-14T14:43:41.297Z,49.72
2022-09-14T14:46:45.637Z,48.80
2022-09-14T14:49:48.439Z,47.73
2022-09-14T14:52:51.754Z,47.15
2022-09-14T14:55:54.624Z,44.86
2022-09-14T14:59:01.931Z,44.56
2022-09-14T15:02:06.784Z,47.56
2022-09-14T15:05:10.404Z,49.81
2022-09-14T15:08:15.534Z,51.88
2022-09-14T15:11:18.492Z,51.78
2022-09-14T15:14:26.667Z,53.87
2022-09-14T15:17:30.880Z,54.00
2022-09-14T15:20:34.145Z,54.67
2022-09-14T15:23:37.240Z,53.05
2022-09-14T15:26:40.072Z,50.95
2022-09-14T15:29:42.575Z,51.87
2022-09-14T15:32:45.464Z,50.55
2022-09-14T15:35:54.862Z,50.92
2022-09-14T15:38:57.838Z,51.55
2022-09-14T15:42:00.416Z,52.24
2022-09-14T15:45:04.062Z,52.70
2022-09-14T15:48:06.796Z,54.06
2022-09-14T15:51:11.749Z,55.08
2022-09-14T15:54:14.940Z,55.91
2022-09-14T15:57:17.699Z,56.21
2022-09-14T16:00:20.403Z,57.37
2022-09-14T16:03:23.160Z,58.82
2022-09-14T16:06:25.904Z,58.78
2022-09-14T16:09:28.825Z,60.45
2022-09-14T16:12:31.432Z,60.78
2022-09-14T16:15:34.304Z,61.49
